createdAt,value
2023-03-02T00:00:41.677Z,18.03
2023-03-02T00:03:09.777Z,14.07
2023-03-02T00:05:37.022Z,15.10
2023-03-02T00:08:04.259Z,18.77
2023-03-02T00:10:31.322Z,14.47
2023-03-02T00:12:58.769Z,17.70
2023-03-02T00:15:25.555Z,14.27
2023-03-02T00:17:52.230Z,17.57
2023-03-02T00:20:18.966Z,15.23
2023-03-02T00:22:46.141Z,18.17
2023-03-02T00:25:14.141Z,18.67
2023-03-02T00:27:41.235Z,16.37
2023-03-02T00:30:08.165Z,17.97
2023-03-02T00:32:35.203Z,20.03
2023-03-02T00:35:02.076Z,16.80
2023-03-02T00:37:28.875Z,16.57
2023-03-02T00:39:55.709Z,16.53
2023-03-02T00:42:22.667Z,17.80
2023-03-02T00:44:49.336Z,15.00
2023-03-02T00:47:15.984Z,15.13
2023-03-02T00:49:42.680Z,17.07
2023-03-02T00:52:09.267Z,17.93
2023-03-02T00:54:36.790Z,14.77
2023-03-02T00:57:03.375Z,14.13
2023-03-02T00:59:29.936Z,15.93
2023-03-02T01:02:21.729Z,14.37
2023-03-02T01:04:49.470Z,14.47
2023-03-02T01:07:17.311Z,17.87
2023-03-02T01:09:44.551Z,21.23
2023-03-02T01:12:11.574Z,14.93
2023-03-02T01:14:39.144Z,16.33
2023-03-02T01:17:06.602Z,14.70
2023-03-02T01:19:33.538Z,14.83
2023-03-02T01:22:00.346Z,15.57
2023-03-02T01:24:27.115Z,18.03
2023-03-02T01:26:53.801Z,17.50
2023-03-02T01:29:20.402Z,15.30
2023-03-02T01:31:47.571Z,16.47
2023-03-02T01:34:15.936Z,18.03
2023-03-02T01:36:45.669Z,15.83
2023-03-02T01:39:16.349Z,17.37
2023-03-02T01:41:44.131Z,15.50
2023-03-02T01:44:29.727Z,16.70
2023-03-02T01:46:56.478Z,13.10
2023-03-02T01:49:23.308Z,16.13
2023-03-02T01:51:55.468Z,18.20
2023-03-02T01:54:23.460Z,16.30
2023-03-02T01:56:58.223Z,18.07
2023-03-02T01:59:26.691Z,16.50
2023-03-02T02:01:55.013Z,18.70
2023-03-02T02:04:23.171Z,16.13
2023-03-02T02:07:04.493Z,20.87
2023-03-02T02:09:33.936Z,16.83
2023-03-02T02:15:44.903Z,15.83
2023-03-02T02:18:11.710Z,17.30
2023-03-02T02:24:21.682Z,20.23
2023-03-02T02:26:50.495Z,20.57
2023-03-02T02:29:23.068Z,17.83
2023-03-02T02:32:02.972Z,17.07
2023-03-02T02:34:35.422Z,17.13
2023-03-02T02:37:07.339Z,19.17
2023-03-02T02:39:35.392Z,20.17
2023-03-02T02:42:04.010Z,17.47
2023-03-02T02:44:31.117Z,19.00
2023-03-02T02:46:57.677Z,20.63
2023-03-02T02:49:35.314Z,20.97
2023-03-02T02:52:03.195Z,17.17
2023-03-02T02:54:31.148Z,17.93
2023-03-02T02:56:59.061Z,19.10
2023-03-02T03:02:43.202Z,16.43
2023-03-02T03:05:14.406Z,19.63
2023-03-02T03:07:41.303Z,22.30
2023-03-02T03:10:14.287Z,22.60
2023-03-02T03:12:41.700Z,20.60
2023-03-02T03:15:08.887Z,19.33
2023-03-02T03:17:35.477Z,17.53
2023-03-02T03:20:11.594Z,21.77
2023-03-02T03:22:42.810Z,19.37
2023-03-02T03:25:15.364Z,21.33
2023-03-02T03:27:45.377Z,23.73
2023-03-02T03:30:13.806Z,18.80
2023-03-02T03:32:41.774Z,20.80
2023-03-02T03:35:11.672Z,24.90
2023-03-02T03:37:42.067Z,21.83
2023-03-02T03:40:09.933Z,20.70
2023-03-02T03:42:39.842Z,21.57
2023-03-02T03:45:08.627Z,20.23
2023-03-02T03:47:36.526Z,20.73
2023-03-02T03:50:04.935Z,20.27
2023-03-02T03:52:31.690Z,22.60
2023-03-02T03:55:08.486Z,20.43
2023-03-02T03:57:35.147Z,19.70
2023-03-02T04:00:02.053Z,21.67
2023-03-02T04:02:28.982Z,21.33
2023-03-02T04:04:56.235Z,24.43
2023-03-02T04:07:22.894Z,18.90
2023-03-02T04:09:49.621Z,27.40
2023-03-02T04:12:16.540Z,17.20
2023-03-02T04:14:48.154Z,19.10
2023-03-02T04:17:15.962Z,17.60
2023-03-02T04:19:45.924Z,19.13
2023-03-02T04:22:13.012Z,18.47
2023-03-02T04:24:39.646Z,22.00
2023-03-02T04:27:06.347Z,18.50
2023-03-02T04:29:34.455Z,20.77
2023-03-02T04:32:03.544Z,20.03
2023-03-02T04:34:32.477Z,17.17
2023-03-02T04:36:59.491Z,22.77
2023-03-02T04:39:26.976Z,25.53
2023-03-02T04:41:54.298Z,20.53
2023-03-02T04:44:21.139Z,21.77
2023-03-02T04:46:49.097Z,16.90
2023-03-02T04:49:16.829Z,15.80
2023-03-02T04:51:44.627Z,18.93
2023-03-02T04:54:14.776Z,18.77
2023-03-02T04:56:41.475Z,18.53
2023-03-02T04:59:08.192Z,15.63
2023-03-02T05:01:34.817Z,20.00
2023-03-02T05:04:03.031Z,16.10
2023-03-02T05:06:29.881Z,17.40
2023-03-02T05:09:00.257Z,20.33
2023-03-02T05:11:27.417Z,20.47
2023-03-02T05:13:55.817Z,18.00
2023-03-02T05:16:22.998Z,20.43
2023-03-02T05:18:49.798Z,21.87
2023-03-02T05:21:16.876Z,22.80
2023-03-02T05:23:43.775Z,22.57
2023-03-02T05:26:10.463Z,19.90
2023-03-02T05:28:37.114Z,19.17
2023-03-02T05:31:04.070Z,21.50
2023-03-02T05:33:30.923Z,17.00
2023-03-02T05:35:57.703Z,20.10
2023-03-02T05:38:24.540Z,19.10
2023-03-02T05:40:51.466Z,18.17
2023-03-02T05:43:19.913Z,19.83
2023-03-02T05:45:46.627Z,22.30
2023-03-02T05:48:14.071Z,22.30
2023-03-02T05:50:41.486Z,18.17
2023-03-02T05:53:08.292Z,17.67
2023-03-02T05:55:37.231Z,22.17
2023-03-02T05:58:06.065Z,21.30
2023-03-02T06:00:33.046Z,20.30
2023-03-02T06:02:59.684Z,23.27
2023-03-02T06:05:26.759Z,19.90
2023-03-02T06:07:54.043Z,18.63
2023-03-02T06:10:20.646Z,21.87
2023-03-02T06:12:47.294Z,21.37
2023-03-02T06:15:13.884Z,19.50
2023-03-02T06:17:40.639Z,19.20
2023-03-02T06:20:11.317Z,22.57
2023-03-02T06:22:41.292Z,19.87
2023-03-02T06:25:11.820Z,22.23
2023-03-02T06:27:39.173Z,19.33
2023-03-02T06:30:06.430Z,18.97
2023-03-02T06:32:34.455Z,19.93
2023-03-02T06:35:01.602Z,22.43
2023-03-02T06:37:28.802Z,34.70
2023-03-02T06:39:56.176Z,33.37
2023-03-02T06:42:23.535Z,24.23
2023-03-02T06:44:51.722Z,26.30
2023-03-02T06:47:18.677Z,28.27
2023-03-02T06:49:45.274Z,31.63
2023-03-02T06:52:13.665Z,31.63
2023-03-02T06:54:40.573Z,28.67
2023-03-02T06:57:07.424Z,27.13
2023-03-02T06:59:34.236Z,23.60
2023-03-02T07:02:00.921Z,21.00
2023-03-02T07:04:30.544Z,22.13
2023-03-02T07:06:57.733Z,22.00
2023-03-02T07:09:24.396Z,21.53
2023-03-02T07:11:51.338Z,19.03
2023-03-02T07:14:18.044Z,18.20
2023-03-02T07:16:44.653Z,20.80
2023-03-02T07:19:14.661Z,19.60
2023-03-02T07:21:41.436Z,19.03
2023-03-02T07:24:08.637Z,19.33
2023-03-02T07:26:35.302Z,16.80
2023-03-02T07:29:02.109Z,16.97
2023-03-02T07:34:34.378Z,21.63
2023-03-02T07:37:00.976Z,18.33
2023-03-02T07:39:27.535Z,21.57
2023-03-02T07:41:57.299Z,20.73
2023-03-02T07:44:23.873Z,25.43
2023-03-02T07:46:50.468Z,20.47
2023-03-02T07:49:17.113Z,18.50
2023-03-02T07:51:43.812Z,19.83
2023-03-02T07:54:11.119Z,21.97
2023-03-02T07:56:37.662Z,18.33
2023-03-02T07:59:04.269Z,15.93
2023-03-02T08:01:31.479Z,14.97
2023-03-02T08:03:58.445Z,14.53
2023-03-02T08:06:25.022Z,16.73
2023-03-02T08:08:52.027Z,16.50
2023-03-02T08:11:18.647Z,17.23
2023-03-02T08:13:45.735Z,17.50
2023-03-02T08:16:13.295Z,15.83
2023-03-02T08:18:40.454Z,16.60
2023-03-02T08:21:17.273Z,15.70
2023-03-02T08:23:44.335Z,18.50
2023-03-02T08:26:13.862Z,15.67
2023-03-02T08:28:41.750Z,16.20
2023-03-02T08:31:08.963Z,17.50
2023-03-02T08:33:36.021Z,15.13
2023-03-02T08:36:04.570Z,18.30
2023-03-02T08:38:31.586Z,16.17
2023-03-02T08:40:58.288Z,14.13
2023-03-02T08:43:26.615Z,15.90
2023-03-02T08:45:53.783Z,13.27
2023-03-02T08:48:21.296Z,11.93
2023-03-02T08:50:58.918Z,16.30
2023-03-02T08:53:26.292Z,17.57
2023-03-02T08:55:52.986Z,17.03
2023-03-02T08:58:19.621Z,12.50
2023-03-02T09:00:46.496Z,16.20
2023-03-02T09:03:13.465Z,12.80
2023-03-02T09:05:40.244Z,14.37
2023-03-02T09:08:07.085Z,19.70
2023-03-02T09:10:33.760Z,15.13
2023-03-02T09:13:00.384Z,18.77
2023-03-02T09:15:27.326Z,14.30
2023-03-02T09:17:54.016Z,13.20
2023-03-02T09:20:20.821Z,17.70
2023-03-02T09:22:50.810Z,17.67
2023-03-02T09:25:18.503Z,20.17
2023-03-02T09:27:46.056Z,14.03
2023-03-02T09:30:13.852Z,15.03
2023-03-02T09:32:41.038Z,17.20
2023-03-02T09:35:08.233Z,12.87
2023-03-02T09:37:37.505Z,17.17
2023-03-02T09:40:04.869Z,15.63
2023-03-02T09:42:50.120Z,14.03
2023-03-02T09:45:17.274Z,16.27
2023-03-02T09:47:53.724Z,10.93
2023-03-02T09:50:27.250Z,12.13
2023-03-02T09:53:08.230Z,11.70
2023-03-02T09:55:36.099Z,16.03
2023-03-02T09:58:06.138Z,13.63
2023-03-02T10:00:37.356Z,11.87
2023-03-02T10:03:17.350Z,13.13
2023-03-02T10:05:48.487Z,15.70
2023-03-02T10:08:16.917Z,12.07
2023-03-02T10:10:52.161Z,10.93
2023-03-02T10:13:24.956Z,9.03
2023-03-02T10:15:54.405Z,13.53
2023-03-02T10:18:23.645Z,9.60
2023-03-02T10:21:09.643Z,10.23
2023-03-02T10:23:41.911Z,15.73
2023-03-02T10:26:38.158Z,11.53
2023-03-02T10:29:14.573Z,11.63
2023-03-02T10:31:41.655Z,10.23
2023-03-02T10:34:10.166Z,13.63
2023-03-02T10:36:41.094Z,12.03
2023-03-02T10:39:12.338Z,10.43
2023-03-02T10:41:41.670Z,9.17
2023-03-02T10:44:15.709Z,9.77
2023-03-02T10:46:43.747Z,14.63
2023-03-02T10:49:25.724Z,13.77
2023-03-02T10:52:16.413Z,9.87
2023-03-02T10:54:43.086Z,18.37
2023-03-02T10:57:25.031Z,11.07
2023-03-02T10:59:52.189Z,10.37
2023-03-02T11:02:23.731Z,12.40
2023-03-02T11:04:57.354Z,12.00
2023-03-02T11:07:25.783Z,9.33
2023-03-02T11:09:59.064Z,10.63
2023-03-02T11:12:25.700Z,11.97
2023-03-02T11:15:02.684Z,11.93
2023-03-02T11:17:31.079Z,13.07
2023-03-02T11:19:57.748Z,12.07
2023-03-02T11:22:30.411Z,11.40
2023-03-02T11:24:58.426Z,14.33
2023-03-02T11:27:27.530Z,12.03
2023-03-02T11:29:57.334Z,11.30
2023-03-02T11:32:42.569Z,11.37
2023-03-02T11:35:15.313Z,8.97
2023-03-02T11:37:52.491Z,13.43
2023-03-02T11:40:22.722Z,14.20
2023-03-02T11:42:49.723Z,10.70
2023-03-02T11:45:19.660Z,11.87
2023-03-02T11:47:57.614Z,11.07
2023-03-02T11:50:29.680Z,13.97
2023-03-02T11:53:01.462Z,13.50
2023-03-02T11:55:30.250Z,11.00
2023-03-02T12:00:47.199Z,11.40
2023-03-02T12:03:17.150Z,10.80
2023-03-02T12:05:45.593Z,13.07
2023-03-02T12:08:15.366Z,11.33
2023-03-02T12:10:44.092Z,12.90
2023-03-02T12:13:10.661Z,13.17
2023-03-02T12:15:39.979Z,10.57
2023-03-02T12:18:22.048Z,10.60
2023-03-02T12:21:04.295Z,11.37
2023-03-02T12:23:32.598Z,11.60
2023-03-02T12:26:02.359Z,13.43
2023-03-02T12:28:36.896Z,9.97
2023-03-02T12:31:04.759Z,10.83
2023-03-02T12:33:31.483Z,9.50
2023-03-02T12:36:09.893Z,7.37
2023-03-02T12:38:38.861Z,11.93
2023-03-02T12:41:21.188Z,12.03
2023-03-02T12:44:06.373Z,11.77
2023-03-02T12:46:34.619Z,12.47
2023-03-02T12:49:01.579Z,11.87
2023-03-02T12:51:29.780Z,13.63
2023-03-02T12:54:03.613Z,10.23
2023-03-02T12:56:30.204Z,14.83
2023-03-02T12:58:56.863Z,14.10
2023-03-02T13:01:24.998Z,12.70
2023-03-02T13:03:53.782Z,10.03
2023-03-02T13:06:23.120Z,9.67
2023-03-02T13:08:51.504Z,10.77
2023-03-02T13:11:27.385Z,10.43
2023-03-02T13:13:54.250Z,11.23
2023-03-02T13:16:23.227Z,13.83
2023-03-02T13:18:53.893Z,12.03
2023-03-02T13:21:21.437Z,10.30
2023-03-02T13:23:50.248Z,12.13
2023-03-02T13:26:27.758Z,13.53
2023-03-02T13:29:01.862Z,12.03
2023-03-02T13:31:28.897Z,13.07
2023-03-02T13:33:57.151Z,14.97
2023-03-02T13:36:44.232Z,12.00
2023-03-02T13:39:26.534Z,10.77
2023-03-02T13:41:57.196Z,10.43
2023-03-02T13:44:28.063Z,12.50
2023-03-02T13:46:55.147Z,8.67
2023-03-02T13:49:27.980Z,11.80
2023-03-02T13:52:02.598Z,11.13
2023-03-02T13:54:30.604Z,8.77
2023-03-02T13:56:58.393Z,9.87
2023-03-02T13:59:25.290Z,11.07
2023-03-02T14:01:52.468Z,13.70
2023-03-02T14:04:23.369Z,8.30
2023-03-02T14:06:50.987Z,10.37
2023-03-02T14:09:17.637Z,8.70
2023-03-02T14:11:45.459Z,9.63
2023-03-02T14:14:14.192Z,11.50
2023-03-02T14:16:41.628Z,8.13
2023-03-02T14:19:09.620Z,12.10
2023-03-02T14:21:36.657Z,9.80
2023-03-02T14:24:03.714Z,9.53
2023-03-02T14:26:47.525Z,7.23
2023-03-02T14:29:27.973Z,9.37
2023-03-02T14:31:55.504Z,8.40
2023-03-02T14:34:22.535Z,8.50
2023-03-02T14:36:50.981Z,13.63
2023-03-02T14:39:22.959Z,9.87
2023-03-02T14:41:53.704Z,7.70
2023-03-02T14:44:21.006Z,8.73
2023-03-02T14:46:47.779Z,8.70
2023-03-02T14:49:14.504Z,8.57
2023-03-02T14:51:41.999Z,9.00
2023-03-02T14:54:11.029Z,8.43
2023-03-02T14:56:38.125Z,9.40
2023-03-02T14:59:04.887Z,7.73
2023-03-02T15:01:32.233Z,8.80
2023-03-02T15:03:59.039Z,11.03
2023-03-02T15:06:27.347Z,10.80
2023-03-02T15:08:54.570Z,8.93
2023-03-02T15:11:21.741Z,9.80
2023-03-02T15:13:48.440Z,8.27
2023-03-02T15:16:15.461Z,6.93
2023-03-02T15:18:42.552Z,8.07
2023-03-02T15:21:14.732Z,7.27
2023-03-02T15:23:41.358Z,8.53
2023-03-02T15:26:09.460Z,9.73
2023-03-02T15:28:36.078Z,8.93
2023-03-02T15:31:09.820Z,12.50
2023-03-02T15:33:36.703Z,12.73
2023-03-02T15:36:06.333Z,6.47
2023-03-02T15:38:33.858Z,7.10
2023-03-02T15:41:04.431Z,9.47
2023-03-02T15:43:31.513Z,10.33
2023-03-02T15:45:58.187Z,7.80
2023-03-02T15:48:24.792Z,9.97
2023-03-02T15:51:01.247Z,8.33
2023-03-02T15:53:28.796Z,5.83
2023-03-02T15:55:55.709Z,7.03
2023-03-02T15:58:22.502Z,6.60
2023-03-02T16:00:49.737Z,9.40
2023-03-02T16:03:16.846Z,8.47
2023-03-02T16:05:43.476Z,8.80
2023-03-02T16:08:10.114Z,6.33
2023-03-02T16:10:37.058Z,12.83
2023-03-02T16:13:04.744Z,9.07
2023-03-02T16:15:31.993Z,10.00
2023-03-02T16:17:58.688Z,8.50
2023-03-02T16:20:25.293Z,6.43
2023-03-02T16:22:51.891Z,7.57
2023-03-02T16:25:18.642Z,7.63
2023-03-02T16:27:47.604Z,9.27
2023-03-02T16:30:15.499Z,7.93
2023-03-02T16:32:42.241Z,7.30
2023-03-02T16:35:09.397Z,12.33
2023-03-02T16:37:36.102Z,8.30
2023-03-02T16:40:02.751Z,10.47
2023-03-02T16:42:30.479Z,12.53
2023-03-02T16:44:57.228Z,10.37
2023-03-02T16:47:23.891Z,13.53
2023-03-02T16:49:50.451Z,10.87
2023-03-02T16:52:17.712Z,12.77
2023-03-02T16:54:45.131Z,13.27
2023-03-02T16:57:11.825Z,13.47
2023-03-02T16:59:38.565Z,11.37
2023-03-02T17:02:05.200Z,11.47
2023-03-02T17:04:35.075Z,12.43
2023-03-02T17:07:03.144Z,11.27
2023-03-02T17:09:30.564Z,8.93
2023-03-02T17:11:57.246Z,11.00
2023-03-02T17:14:24.015Z,9.73
2023-03-02T17:16:50.675Z,10.17
2023-03-02T17:19:17.293Z,10.80
2023-03-02T17:21:43.926Z,12.80
2023-03-02T17:24:10.573Z,13.70
2023-03-02T17:26:37.282Z,11.73
2023-03-02T17:29:03.918Z,12.50
2023-03-02T17:31:30.653Z,10.93
2023-03-02T17:34:08.693Z,10.33
2023-03-02T17:36:36.847Z,9.97
2023-03-02T17:39:04.274Z,11.57
2023-03-02T17:41:31.481Z,15.27
2023-03-02T17:43:58.141Z,10.93
2023-03-02T17:46:25.822Z,14.47
2023-03-02T17:48:54.271Z,9.73
2023-03-02T17:51:22.303Z,17.90
2023-03-02T17:53:50.569Z,16.23
2023-03-02T17:56:22.183Z,15.70
2023-03-02T17:58:54.652Z,13.30
2023-03-02T18:01:21.564Z,13.07
2023-03-02T18:03:48.458Z,15.37
2023-03-02T18:06:17.960Z,14.47
2023-03-02T18:08:45.099Z,17.53
2023-03-02T18:11:11.846Z,19.13
2023-03-02T18:13:38.866Z,18.70
2023-03-02T18:16:05.834Z,14.40
2023-03-02T18:18:32.701Z,16.77
2023-03-02T18:20:59.630Z,14.63
2023-03-02T18:23:26.897Z,15.83
2023-03-02T18:25:53.641Z,15.07
2023-03-02T18:28:20.326Z,17.40
2023-03-02T18:30:47.639Z,13.80
2023-03-02T18:33:14.275Z,14.57
2023-03-02T18:35:40.923Z,15.03
2023-03-02T18:38:07.788Z,16.97
2023-03-02T18:40:35.322Z,12.83
2023-03-02T18:43:02.045Z,17.77
2023-03-02T18:45:30.034Z,21.27
2023-03-02T18:47:57.339Z,18.80
2023-03-02T18:50:24.163Z,23.87
2023-03-02T18:52:52.998Z,31.27
2023-03-02T18:55:20.537Z,32.03
2023-03-02T18:57:47.426Z,36.93
2023-03-02T19:00:16.102Z,26.53
2023-03-02T19:02:42.799Z,25.73
2023-03-02T19:05:09.715Z,18.67
2023-03-02T19:07:37.475Z,16.43
2023-03-02T19:10:04.886Z,13.97
2023-03-02T19:12:31.527Z,16.30
2023-03-02T19:14:59.314Z,18.53
2023-03-02T19:17:26.048Z,15.07
2023-03-02T19:19:52.963Z,15.03
2023-03-02T19:22:19.639Z,16.10
2023-03-02T19:24:47.229Z,15.30
2023-03-02T19:27:14.459Z,17.13
2023-03-02T19:29:41.407Z,18.17
2023-03-02T19:32:08.461Z,17.63
2023-03-02T19:34:35.731Z,17.97
2023-03-02T19:37:03.483Z,17.90
2023-03-02T19:39:30.266Z,16.63
2023-03-02T19:41:56.998Z,17.37
2023-03-02T19:44:25.812Z,20.17
2023-03-02T19:46:53.098Z,18.37
2023-03-02T19:49:19.752Z,19.97
2023-03-02T19:51:46.489Z,22.73
2023-03-02T19:54:13.160Z,20.03
2023-03-02T19:56:43.135Z,20.00
2023-03-02T19:59:10.303Z,22.03
2023-03-02T20:01:37.289Z,16.30
2023-03-02T20:04:04.160Z,17.23
2023-03-02T20:06:32.058Z,17.47
2023-03-02T20:09:03.692Z,16.93
2023-03-02T20:11:31.492Z,16.67
2023-03-02T20:14:02.257Z,18.33
2023-03-02T20:16:33.681Z,18.73
2023-03-02T20:19:02.126Z,16.93
2023-03-02T20:21:33.022Z,18.07
2023-03-02T20:24:00.290Z,19.97
2023-03-02T20:26:27.280Z,20.33
2023-03-02T20:28:55.594Z,22.27
2023-03-02T20:31:23.724Z,18.20
2023-03-02T20:33:52.027Z,20.40
2023-03-02T20:36:21.604Z,19.90
2023-03-02T20:38:54.053Z,21.47
2023-03-02T20:41:20.769Z,25.47
2023-03-02T20:43:48.046Z,23.80
2023-03-02T20:46:20.475Z,24.93
2023-03-02T20:48:48.203Z,26.37
2023-03-02T20:51:14.936Z,19.53
2023-03-02T20:53:43.163Z,21.27
2023-03-02T20:56:11.365Z,20.33
2023-03-02T20:58:41.508Z,19.73
2023-03-02T21:01:08.314Z,19.83
2023-03-02T21:03:35.703Z,25.60
2023-03-02T21:06:03.057Z,23.20
2023-03-02T21:08:29.838Z,25.30
2023-03-02T21:10:56.502Z,24.83
2023-03-02T21:13:23.668Z,21.83
2023-03-02T21:15:50.911Z,25.53
2023-03-02T21:18:17.743Z,35.60
2023-03-02T21:20:44.578Z,38.63
2023-03-02T21:23:13.127Z,24.57
2023-03-02T21:25:42.267Z,26.73
2023-03-02T21:28:09.632Z,26.57
2023-03-02T21:30:36.736Z,26.33
2023-03-02T21:33:03.661Z,23.23
2023-03-02T21:35:30.779Z,27.50
2023-03-02T21:37:58.588Z,26.10
2023-03-02T21:40:27.010Z,27.33
2023-03-02T21:42:53.930Z,28.03
2023-03-02T21:45:21.152Z,28.53
2023-03-02T21:47:47.810Z,26.00
2023-03-02T21:50:17.126Z,26.97
2023-03-02T21:52:43.784Z,27.83
2023-03-02T21:55:11.572Z,30.57
2023-03-02T21:57:38.772Z,27.97
2023-03-02T22:00:06.344Z,26.40
2023-03-02T22:02:33.300Z,28.23
2023-03-02T22:05:00.006Z,29.03
2023-03-02T22:07:26.686Z,27.63
2023-03-02T22:09:53.383Z,30.53
2023-03-02T22:12:22.573Z,29.07
2023-03-02T22:14:49.328Z,29.60
2023-03-02T22:17:18.260Z,31.07
2023-03-02T22:19:45.451Z,32.70
2023-03-02T22:22:15.706Z,30.40
2023-03-02T22:24:43.629Z,33.40
2023-03-02T22:27:27.086Z,31.23
2023-03-02T22:29:56.662Z,30.67
2023-03-02T22:32:23.436Z,32.67
2023-03-02T22:34:52.196Z,28.53
2023-03-02T22:37:20.546Z,35.43
2023-03-02T22:39:47.756Z,30.57
2023-03-02T22:42:16.326Z,31.43
2023-03-02T22:44:43.996Z,31.27
2023-03-02T22:47:14.790Z,31.80
2023-03-02T22:49:41.992Z,31.30
2023-03-02T22:52:17.476Z,32.30
2023-03-02T22:54:45.673Z,35.90
2023-03-02T22:57:27.967Z,36.47
2023-03-02T23:00:17.365Z,33.60
2023-03-02T23:02:45.072Z,28.13
2023-03-02T23:05:29.750Z,36.63
2023-03-02T23:08:09.892Z,36.87
2023-03-02T23:10:36.500Z,36.87
2023-03-02T23:13:03.171Z,36.20
2023-03-02T23:15:29.860Z,35.93
2023-03-02T23:17:57.348Z,35.37
2023-03-02T23:20:24.085Z,33.00
2023-03-02T23:22:51.806Z,39.23
2023-03-02T23:25:19.493Z,35.50
2023-03-02T23:27:46.167Z,37.90
2023-03-02T23:30:17.830Z,39.17
2023-03-02T23:32:44.592Z,35.13
2023-03-02T23:35:11.281Z,37.90
2023-03-02T23:37:37.939Z,38.40
2023-03-02T23:40:05.512Z,41.07
2023-03-02T23:42:32.106Z,39.23
2023-03-02T23:44:58.756Z,40.13
2023-03-02T23:47:25.380Z,39.87
2023-03-02T23:49:52.056Z,42.40
2023-03-02T23:52:18.673Z,42.80
2023-03-02T23:54:46.293Z,36.17
2023-03-02T23:57:13.600Z,36.70
2023-03-02T23:59:40.356Z,45.40
